Terminal Aerodrome Forecast
Issued by NWS Los Angeles, CA

Current Version | Previous Version | Text Only | Print | Product List | Glossary On
Versions: 1 2 3 4 5 6 7 8 9 10 11 12
586
FTUS46 KLOX 180543
TAFSMX
TAF
KSMX 180543Z 1806/1906 VRB03KT P6SM OVC250
     FM181100 VRB04KT 3SM BR BKN007 BKN150
     FM181600 16006KT P6SM SCT015 BKN090
     FM181900 15012KT P6SM -SHRA BKN020 OVC040
     FM190300 14015G20KT 5SM -RA BR OVC015=

USA.gov is the U.S. government's official web portal to all federal, state and local government web resources and services.